<?xml version="1.0" encoding="UTF-8" standalone="no" ?>
<gpx xmlns="http://www.topografix.com/GPX/1/1" xmlns:xsi="http://www.w3.org/2001/XMLSchema-instance" xsi:schemaLocation="http://www.topografix.com/GPX/1/1 http://www.topografix.com/GPX/1/1/gpx.xsd" version="1.1" creator="VisuGPX - https://www.visugpx.com">
  <metadata>
    <name>14071753-Malaterre GR 2</name>
  </metadata>
  <trk>
    <name><![CDATA[14071753-Malaterre GR 2]]></name>
    <trkseg>
      <trkpt lat="45.06219" lon="5.52372">
        <ele>1127</ele>
        <time>2022-01-13T19:50:38Z</time>
      </trkpt>
      <trkpt lat="45.06215" lon="5.52361">
        <ele>1126</ele>
        <time>2022-01-13T19:50:45Z</time>
      </trkpt>
      <trkpt lat="45.06209" lon="5.5237">
        <ele>1127</ele>
        <time>2022-01-13T19:50:52Z</time>
      </trkpt>
      <trkpt lat="45.06202" lon="5.52373">
        <ele>1128</ele>
        <time>2022-01-13T19:50:58Z</time>
      </trkpt>
      <trkpt lat="45.06161" lon="5.52364">
        <ele>1131</ele>
        <time>2022-01-13T19:51:31Z</time>
      </trkpt>
      <trkpt lat="45.0612" lon="5.52369">
        <ele>1136</ele>
        <time>2022-01-13T19:52:04Z</time>
      </trkpt>
      <trkpt lat="45.06106" lon="5.52363">
        <ele>1137</ele>
        <time>2022-01-13T19:52:16Z</time>
      </trkpt>
      <trkpt lat="45.06089" lon="5.52348">
        <ele>1137</ele>
        <time>2022-01-13T19:52:32Z</time>
      </trkpt>
      <trkpt lat="45.06074" lon="5.52331">
        <ele>1137</ele>
        <time>2022-01-13T19:52:47Z</time>
      </trkpt>
      <trkpt lat="45.06058" lon="5.52317">
        <ele>1138</ele>
        <time>2022-01-13T19:53:02Z</time>
      </trkpt>
      <trkpt lat="45.0605" lon="5.52316">
        <ele>1138</ele>
        <time>2022-01-13T19:53:09Z</time>
      </trkpt>
      <trkpt lat="45.06047" lon="5.52307">
        <ele>1138</ele>
        <time>2022-01-13T19:53:14Z</time>
      </trkpt>
      <trkpt lat="45.06038" lon="5.52295">
        <ele>1137</ele>
        <time>2022-01-13T19:53:24Z</time>
      </trkpt>
      <trkpt lat="45.06011" lon="5.52266">
        <ele>1137</ele>
        <time>2022-01-13T19:53:51Z</time>
      </trkpt>
      <trkpt lat="45.05995" lon="5.5225">
        <ele>1136</ele>
        <time>2022-01-13T19:54:07Z</time>
      </trkpt>
      <trkpt lat="45.05976" lon="5.52238">
        <ele>1135</ele>
        <time>2022-01-13T19:54:24Z</time>
      </trkpt>
      <trkpt lat="45.05963" lon="5.52225">
        <ele>1134</ele>
        <time>2022-01-13T19:54:36Z</time>
      </trkpt>
      <trkpt lat="45.05951" lon="5.52206">
        <ele>1133</ele>
        <time>2022-01-13T19:54:51Z</time>
      </trkpt>
      <trkpt lat="45.05916" lon="5.52182">
        <ele>1131</ele>
        <time>2022-01-13T19:55:22Z</time>
      </trkpt>
      <trkpt lat="45.05859" lon="5.52154">
        <ele>1128</ele>
        <time>2022-01-13T19:56:10Z</time>
      </trkpt>
      <trkpt lat="45.05846" lon="5.52146">
        <ele>1127</ele>
        <time>2022-01-13T19:56:22Z</time>
      </trkpt>
      <trkpt lat="45.05839" lon="5.52135">
        <ele>1127</ele>
        <time>2022-01-13T19:56:30Z</time>
      </trkpt>
      <trkpt lat="45.05832" lon="5.52119">
        <ele>1127</ele>
        <time>2022-01-13T19:56:41Z</time>
      </trkpt>
      <trkpt lat="45.05833" lon="5.52108">
        <ele>1127</ele>
        <time>2022-01-13T19:56:47Z</time>
      </trkpt>
      <trkpt lat="45.05843" lon="5.52093">
        <ele>1127</ele>
        <time>2022-01-13T19:56:59Z</time>
      </trkpt>
      <trkpt lat="45.05856" lon="5.52083">
        <ele>1127</ele>
        <time>2022-01-13T19:57:10Z</time>
      </trkpt>
      <trkpt lat="45.05872" lon="5.52074">
        <ele>1127</ele>
        <time>2022-01-13T19:57:24Z</time>
      </trkpt>
      <trkpt lat="45.05877" lon="5.52067">
        <ele>1127</ele>
        <time>2022-01-13T19:57:30Z</time>
      </trkpt>
      <trkpt lat="45.05884" lon="5.52044">
        <ele>1127</ele>
        <time>2022-01-13T19:57:44Z</time>
      </trkpt>
      <trkpt lat="45.05899" lon="5.52009">
        <ele>1126</ele>
        <time>2022-01-13T19:58:07Z</time>
      </trkpt>
      <trkpt lat="45.05903" lon="5.51991">
        <ele>1125</ele>
        <time>2022-01-13T19:58:18Z</time>
      </trkpt>
      <trkpt lat="45.05902" lon="5.51957">
        <ele>1124</ele>
        <time>2022-01-13T19:58:37Z</time>
      </trkpt>
      <trkpt lat="45.05914" lon="5.51915">
        <ele>1121</ele>
        <time>2022-01-13T19:59:03Z</time>
      </trkpt>
      <trkpt lat="45.05926" lon="5.51857">
        <ele>1115</ele>
        <time>2022-01-13T19:59:37Z</time>
      </trkpt>
      <trkpt lat="45.05935" lon="5.51826">
        <ele>1112</ele>
        <time>2022-01-13T19:59:56Z</time>
      </trkpt>
      <trkpt lat="45.0594" lon="5.5176">
        <ele>1108</ele>
        <time>2022-01-13T20:00:33Z</time>
      </trkpt>
      <trkpt lat="45.0592" lon="5.51736">
        <ele>1108</ele>
        <time>2022-01-13T20:00:54Z</time>
      </trkpt>
      <trkpt lat="45.05908" lon="5.51707">
        <ele>1108</ele>
        <time>2022-01-13T20:01:13Z</time>
      </trkpt>
      <trkpt lat="45.05896" lon="5.51689">
        <ele>1109</ele>
        <time>2022-01-13T20:01:27Z</time>
      </trkpt>
      <trkpt lat="45.05851" lon="5.51641">
        <ele>1111</ele>
        <time>2022-01-13T20:02:12Z</time>
      </trkpt>
      <trkpt lat="45.05834" lon="5.51631">
        <ele>1112</ele>
        <time>2022-01-13T20:02:27Z</time>
      </trkpt>
      <trkpt lat="45.05774" lon="5.51624">
        <ele>1114</ele>
        <time>2022-01-13T20:03:15Z</time>
      </trkpt>
      <trkpt lat="45.05747" lon="5.51634">
        <ele>1116</ele>
        <time>2022-01-13T20:03:38Z</time>
      </trkpt>
      <trkpt lat="45.05687" lon="5.51624">
        <ele>1125</ele>
        <time>2022-01-13T20:04:26Z</time>
      </trkpt>
      <trkpt lat="45.05661" lon="5.51624">
        <ele>1129</ele>
        <time>2022-01-13T20:04:47Z</time>
      </trkpt>
      <trkpt lat="45.05642" lon="5.51612">
        <ele>1133</ele>
        <time>2022-01-13T20:05:04Z</time>
      </trkpt>
      <trkpt lat="45.05618" lon="5.51605">
        <ele>1137</ele>
        <time>2022-01-13T20:05:23Z</time>
      </trkpt>
      <trkpt lat="45.05591" lon="5.51604">
        <ele>1142</ele>
        <time>2022-01-13T20:05:45Z</time>
      </trkpt>
      <trkpt lat="45.05577" lon="5.51605">
        <ele>1145</ele>
        <time>2022-01-13T20:05:56Z</time>
      </trkpt>
      <trkpt lat="45.05567" lon="5.51602">
        <ele>1147</ele>
        <time>2022-01-13T20:06:04Z</time>
      </trkpt>
      <trkpt lat="45.05553" lon="5.51603">
        <ele>1150</ele>
        <time>2022-01-13T20:06:15Z</time>
      </trkpt>
      <trkpt lat="45.05536" lon="5.51597">
        <ele>1153</ele>
        <time>2022-01-13T20:06:30Z</time>
      </trkpt>
      <trkpt lat="45.05537" lon="5.51603">
        <ele>1154</ele>
        <time>2022-01-13T20:06:33Z</time>
      </trkpt>
      <trkpt lat="45.05539" lon="5.51614">
        <ele>1154</ele>
        <time>2022-01-13T20:06:39Z</time>
      </trkpt>
      <trkpt lat="45.05537" lon="5.51603">
        <ele>1154</ele>
        <time>2022-01-13T20:06:46Z</time>
      </trkpt>
      <trkpt lat="45.05534" lon="5.51583">
        <ele>1153</ele>
        <time>2022-01-13T20:06:57Z</time>
      </trkpt>
      <trkpt lat="45.05522" lon="5.51582">
        <ele>1155</ele>
        <time>2022-01-13T20:07:07Z</time>
      </trkpt>
      <trkpt lat="45.05505" lon="5.51573">
        <ele>1159</ele>
        <time>2022-01-13T20:07:22Z</time>
      </trkpt>
      <trkpt lat="45.05475" lon="5.51549">
        <ele>1164</ele>
        <time>2022-01-13T20:07:49Z</time>
      </trkpt>
      <trkpt lat="45.0542" lon="5.51574">
        <ele>1166</ele>
        <time>2022-01-13T20:08:35Z</time>
      </trkpt>
      <trkpt lat="45.05394" lon="5.51591">
        <ele>1169</ele>
        <time>2022-01-13T20:08:58Z</time>
      </trkpt>
      <trkpt lat="45.05361" lon="5.51602">
        <ele>1172</ele>
        <time>2022-01-13T20:09:26Z</time>
      </trkpt>
      <trkpt lat="45.05359" lon="5.51612">
        <ele>1173</ele>
        <time>2022-01-13T20:09:31Z</time>
      </trkpt>
      <trkpt lat="45.05359" lon="5.51623">
        <ele>1173</ele>
        <time>2022-01-13T20:09:38Z</time>
      </trkpt>
      <trkpt lat="45.05307" lon="5.51663">
        <ele>1179</ele>
        <time>2022-01-13T20:10:25Z</time>
      </trkpt>
      <trkpt lat="45.05251" lon="5.51731">
        <ele>1188</ele>
        <time>2022-01-13T20:11:24Z</time>
      </trkpt>
      <trkpt lat="45.05215" lon="5.51742">
        <ele>1190</ele>
        <time>2022-01-13T20:11:54Z</time>
      </trkpt>
      <trkpt lat="45.0518" lon="5.51781">
        <ele>1194</ele>
        <time>2022-01-13T20:12:29Z</time>
      </trkpt>
      <trkpt lat="45.05159" lon="5.51779">
        <ele>1195</ele>
        <time>2022-01-13T20:12:46Z</time>
      </trkpt>
      <trkpt lat="45.05121" lon="5.51758">
        <ele>1197</ele>
        <time>2022-01-13T20:13:19Z</time>
      </trkpt>
      <trkpt lat="45.0506" lon="5.51802">
        <ele>1206</ele>
        <time>2022-01-13T20:14:14Z</time>
      </trkpt>
      <trkpt lat="45.05018" lon="5.51797">
        <ele>1209</ele>
        <time>2022-01-13T20:14:47Z</time>
      </trkpt>
      <trkpt lat="45.05" lon="5.51847">
        <ele>1213</ele>
        <time>2022-01-13T20:15:19Z</time>
      </trkpt>
      <trkpt lat="45.04971" lon="5.51884">
        <ele>1221</ele>
        <time>2022-01-13T20:15:50Z</time>
      </trkpt>
      <trkpt lat="45.04949" lon="5.51893">
        <ele>1223</ele>
        <time>2022-01-13T20:16:09Z</time>
      </trkpt>
      <trkpt lat="45.04908" lon="5.51932">
        <ele>1229</ele>
        <time>2022-01-13T20:16:48Z</time>
      </trkpt>
      <trkpt lat="45.04859" lon="5.51958">
        <ele>1234</ele>
        <time>2022-01-13T20:17:30Z</time>
      </trkpt>
      <trkpt lat="45.04807" lon="5.52023">
        <ele>1238</ele>
        <time>2022-01-13T20:18:26Z</time>
      </trkpt>
      <trkpt lat="45.04797" lon="5.52024">
        <ele>1238</ele>
        <time>2022-01-13T20:18:34Z</time>
      </trkpt>
      <trkpt lat="45.04699" lon="5.52113">
        <ele>1246</ele>
        <time>2022-01-13T20:20:07Z</time>
      </trkpt>
      <trkpt lat="45.04668" lon="5.52153">
        <ele>1248</ele>
        <time>2022-01-13T20:20:40Z</time>
      </trkpt>
      <trkpt lat="45.04663" lon="5.52168">
        <ele>1248</ele>
        <time>2022-01-13T20:20:50Z</time>
      </trkpt>
      <trkpt lat="45.04632" lon="5.5218">
        <ele>1250</ele>
        <time>2022-01-13T20:21:16Z</time>
      </trkpt>
      <trkpt lat="45.04581" lon="5.52181">
        <ele>1253</ele>
        <time>2022-01-13T20:21:56Z</time>
      </trkpt>
      <trkpt lat="45.04579" lon="5.52186">
        <ele>1253</ele>
        <time>2022-01-13T20:22:00Z</time>
      </trkpt>
      <trkpt lat="45.04581" lon="5.52181">
        <ele>1253</ele>
        <time>2022-01-13T20:22:03Z</time>
      </trkpt>
      <trkpt lat="45.04591" lon="5.5218">
        <ele>1252</ele>
        <time>2022-01-13T20:22:11Z</time>
      </trkpt>
      <trkpt lat="45.04581" lon="5.52181">
        <ele>1253</ele>
        <time>2022-01-13T20:22:19Z</time>
      </trkpt>
      <trkpt lat="45.0461" lon="5.52053">
        <ele>1253</ele>
        <time>2022-01-13T20:23:35Z</time>
      </trkpt>
      <trkpt lat="45.0461" lon="5.52043">
        <ele>1252</ele>
        <time>2022-01-13T20:23:41Z</time>
      </trkpt>
      <trkpt lat="45.04578" lon="5.51988">
        <ele>1256</ele>
        <time>2022-01-13T20:24:21Z</time>
      </trkpt>
      <trkpt lat="45.04578" lon="5.51988">
        <ele>1256</ele>
        <time>2022-01-13T20:24:21Z</time>
      </trkpt>
      <trkpt lat="45.04571" lon="5.51936">
        <ele>1257</ele>
        <time>2022-01-13T20:24:51Z</time>
      </trkpt>
      <trkpt lat="45.0454" lon="5.51874">
        <ele>1260</ele>
        <time>2022-01-13T20:25:34Z</time>
      </trkpt>
      <trkpt lat="45.0454" lon="5.51874">
        <ele>1260</ele>
        <time>2022-01-13T20:25:34Z</time>
      </trkpt>
      <trkpt lat="45.0453" lon="5.51808">
        <ele>1262</ele>
        <time>2022-01-13T20:26:12Z</time>
      </trkpt>
      <trkpt lat="45.0453" lon="5.51808">
        <ele>1262</ele>
        <time>2022-01-13T20:26:12Z</time>
      </trkpt>
      <trkpt lat="45.04518" lon="5.51773">
        <ele>1264</ele>
        <time>2022-01-13T20:26:34Z</time>
      </trkpt>
      <trkpt lat="45.04518" lon="5.51773">
        <ele>1264</ele>
        <time>2022-01-13T20:26:34Z</time>
      </trkpt>
      <trkpt lat="45.04436" lon="5.51694">
        <ele>1277</ele>
        <time>2022-01-13T20:27:54Z</time>
      </trkpt>
      <trkpt lat="45.04436" lon="5.51694">
        <ele>1277</ele>
        <time>2022-01-13T20:27:54Z</time>
      </trkpt>
      <trkpt lat="45.0439" lon="5.51638">
        <ele>1285</ele>
        <time>2022-01-13T20:28:42Z</time>
      </trkpt>
      <trkpt lat="45.04298" lon="5.51535">
        <ele>1292</ele>
        <time>2022-01-13T20:30:16Z</time>
      </trkpt>
      <trkpt lat="45.04298" lon="5.51535">
        <ele>1292</ele>
        <time>2022-01-13T20:30:16Z</time>
      </trkpt>
      <trkpt lat="45.04249" lon="5.51473">
        <ele>1290</ele>
        <time>2022-01-13T20:31:09Z</time>
      </trkpt>
      <trkpt lat="45.04249" lon="5.51473">
        <ele>1290</ele>
        <time>2022-01-13T20:31:09Z</time>
      </trkpt>
      <trkpt lat="45.04231" lon="5.51445">
        <ele>1289</ele>
        <time>2022-01-13T20:31:30Z</time>
      </trkpt>
      <trkpt lat="45.04231" lon="5.51445">
        <ele>1289</ele>
        <time>2022-01-13T20:31:30Z</time>
      </trkpt>
      <trkpt lat="45.04195" lon="5.51366">
        <ele>1295</ele>
        <time>2022-01-13T20:32:23Z</time>
      </trkpt>
      <trkpt lat="45.04174" lon="5.51321">
        <ele>1299</ele>
        <time>2022-01-13T20:32:54Z</time>
      </trkpt>
      <trkpt lat="45.04174" lon="5.51321">
        <ele>1299</ele>
        <time>2022-01-13T20:32:54Z</time>
      </trkpt>
      <trkpt lat="45.04148" lon="5.51303">
        <ele>1301</ele>
        <time>2022-01-13T20:33:17Z</time>
      </trkpt>
      <trkpt lat="45.04107" lon="5.51252">
        <ele>1306</ele>
        <time>2022-01-13T20:34:01Z</time>
      </trkpt>
      <trkpt lat="45.04078" lon="5.51222">
        <ele>1306</ele>
        <time>2022-01-13T20:34:29Z</time>
      </trkpt>
      <trkpt lat="45.04078" lon="5.51222">
        <ele>1306</ele>
        <time>2022-01-13T20:34:29Z</time>
      </trkpt>
      <trkpt lat="45.04046" lon="5.51151">
        <ele>1302</ele>
        <time>2022-01-13T20:35:17Z</time>
      </trkpt>
      <trkpt lat="45.04069" lon="5.5111">
        <ele>1293</ele>
        <time>2022-01-13T20:35:47Z</time>
      </trkpt>
      <trkpt lat="45.04064" lon="5.51089">
        <ele>1289</ele>
        <time>2022-01-13T20:35:59Z</time>
      </trkpt>
      <trkpt lat="45.04042" lon="5.51082">
        <ele>1288</ele>
        <time>2022-01-13T20:36:17Z</time>
      </trkpt>
      <trkpt lat="45.04042" lon="5.51082">
        <ele>1288</ele>
        <time>2022-01-13T20:36:17Z</time>
      </trkpt>
      <trkpt lat="45.04008" lon="5.51063">
        <ele>1284</ele>
        <time>2022-01-13T20:36:47Z</time>
      </trkpt>
      <trkpt lat="45.04008" lon="5.51063">
        <ele>1284</ele>
        <time>2022-01-13T20:36:47Z</time>
      </trkpt>
      <trkpt lat="45.03976" lon="5.51039">
        <ele>1277</ele>
        <time>2022-01-13T20:37:16Z</time>
      </trkpt>
      <trkpt lat="45.0397" lon="5.51009">
        <ele>1269</ele>
        <time>2022-01-13T20:37:33Z</time>
      </trkpt>
      <trkpt lat="45.03958" lon="5.50992">
        <ele>1266</ele>
        <time>2022-01-13T20:37:47Z</time>
      </trkpt>
      <trkpt lat="45.03929" lon="5.50992">
        <ele>1265</ele>
        <time>2022-01-13T20:38:10Z</time>
      </trkpt>
      <trkpt lat="45.03904" lon="5.50992">
        <ele>1264</ele>
        <time>2022-01-13T20:38:30Z</time>
      </trkpt>
      <trkpt lat="45.03907" lon="5.50928">
        <ele>1254</ele>
        <time>2022-01-13T20:39:06Z</time>
      </trkpt>
      <trkpt lat="45.0392" lon="5.50905">
        <ele>1252</ele>
        <time>2022-01-13T20:39:23Z</time>
      </trkpt>
      <trkpt lat="45.03933" lon="5.50918">
        <ele>1253</ele>
        <time>2022-01-13T20:39:36Z</time>
      </trkpt>
      <trkpt lat="45.03946" lon="5.50917">
        <ele>1253</ele>
        <time>2022-01-13T20:39:46Z</time>
      </trkpt>
      <trkpt lat="45.03969" lon="5.50893">
        <ele>1252</ele>
        <time>2022-01-13T20:40:09Z</time>
      </trkpt>
      <trkpt lat="45.04011" lon="5.50866">
        <ele>1249</ele>
        <time>2022-01-13T20:40:46Z</time>
      </trkpt>
      <trkpt lat="45.03999" lon="5.50772">
        <ele>1249</ele>
        <time>2022-01-13T20:41:40Z</time>
      </trkpt>
      <trkpt lat="45.03967" lon="5.50561">
        <ele>1260</ele>
        <time>2022-01-13T20:43:42Z</time>
      </trkpt>
      <trkpt lat="45.03955" lon="5.50527">
        <ele>1262</ele>
        <time>2022-01-13T20:44:04Z</time>
      </trkpt>
      <trkpt lat="45.03932" lon="5.50506">
        <ele>1263</ele>
        <time>2022-01-13T20:44:25Z</time>
      </trkpt>
      <trkpt lat="45.03922" lon="5.5049">
        <ele>1264</ele>
        <time>2022-01-13T20:44:38Z</time>
      </trkpt>
      <trkpt lat="45.03918" lon="5.50468">
        <ele>1266</ele>
        <time>2022-01-13T20:44:50Z</time>
      </trkpt>
      <trkpt lat="45.03935" lon="5.50389">
        <ele>1273</ele>
        <time>2022-01-13T20:45:37Z</time>
      </trkpt>
      <trkpt lat="45.03934" lon="5.50362">
        <ele>1276</ele>
        <time>2022-01-13T20:45:52Z</time>
      </trkpt>
      <trkpt lat="45.03918" lon="5.50328">
        <ele>1278</ele>
        <time>2022-01-13T20:46:16Z</time>
      </trkpt>
      <trkpt lat="45.03881" lon="5.50277">
        <ele>1279</ele>
        <time>2022-01-13T20:46:57Z</time>
      </trkpt>
      <trkpt lat="45.03877" lon="5.50285">
        <ele>1278</ele>
        <time>2022-01-13T20:47:02Z</time>
      </trkpt>
      <trkpt lat="45.03881" lon="5.50277">
        <ele>1279</ele>
        <time>2022-01-13T20:47:08Z</time>
      </trkpt>
      <trkpt lat="45.03889" lon="5.50249">
        <ele>1281</ele>
        <time>2022-01-13T20:47:25Z</time>
      </trkpt>
      <trkpt lat="45.03892" lon="5.50189">
        <ele>1285</ele>
        <time>2022-01-13T20:47:59Z</time>
      </trkpt>
      <trkpt lat="45.03906" lon="5.50157">
        <ele>1288</ele>
        <time>2022-01-13T20:48:20Z</time>
      </trkpt>
      <trkpt lat="45.03916" lon="5.50125">
        <ele>1289</ele>
        <time>2022-01-13T20:48:40Z</time>
      </trkpt>
      <trkpt lat="45.0396" lon="5.50081">
        <ele>1291</ele>
        <time>2022-01-13T20:49:23Z</time>
      </trkpt>
      <trkpt lat="45.04106" lon="5.50078">
        <ele>1291</ele>
        <time>2022-01-13T20:51:20Z</time>
      </trkpt>
      <trkpt lat="45.04198" lon="5.5006">
        <ele>1291</ele>
        <time>2022-01-13T20:52:35Z</time>
      </trkpt>
      <trkpt lat="45.04277" lon="5.50027">
        <ele>1290</ele>
        <time>2022-01-13T20:53:41Z</time>
      </trkpt>
      <trkpt lat="45.04303" lon="5.49994">
        <ele>1288</ele>
        <time>2022-01-13T20:54:09Z</time>
      </trkpt>
      <trkpt lat="45.04294" lon="5.49983">
        <ele>1289</ele>
        <time>2022-01-13T20:54:18Z</time>
      </trkpt>
      <trkpt lat="45.04281" lon="5.49961">
        <ele>1289</ele>
        <time>2022-01-13T20:54:34Z</time>
      </trkpt>
      <trkpt lat="45.04281" lon="5.49945">
        <ele>1289</ele>
        <time>2022-01-13T20:54:43Z</time>
      </trkpt>
      <trkpt lat="45.04276" lon="5.49943">
        <ele>1289</ele>
        <time>2022-01-13T20:54:48Z</time>
      </trkpt>
      <trkpt lat="45.04281" lon="5.49945">
        <ele>1289</ele>
        <time>2022-01-13T20:54:52Z</time>
      </trkpt>
      <trkpt lat="45.04292" lon="5.49944">
        <ele>1289</ele>
        <time>2022-01-13T20:55:00Z</time>
      </trkpt>
      <trkpt lat="45.04314" lon="5.49925">
        <ele>1289</ele>
        <time>2022-01-13T20:55:21Z</time>
      </trkpt>
      <trkpt lat="45.04326" lon="5.49916">
        <ele>1289</ele>
        <time>2022-01-13T20:55:32Z</time>
      </trkpt>
      <trkpt lat="45.04424" lon="5.49905">
        <ele>1286</ele>
        <time>2022-01-13T20:56:51Z</time>
      </trkpt>
      <trkpt lat="45.04446" lon="5.49914">
        <ele>1286</ele>
        <time>2022-01-13T20:57:09Z</time>
      </trkpt>
      <trkpt lat="45.04461" lon="5.49924">
        <ele>1285</ele>
        <time>2022-01-13T20:57:22Z</time>
      </trkpt>
      <trkpt lat="45.04472" lon="5.49927">
        <ele>1285</ele>
        <time>2022-01-13T20:57:31Z</time>
      </trkpt>
      <trkpt lat="45.04487" lon="5.49924">
        <ele>1285</ele>
        <time>2022-01-13T20:57:43Z</time>
      </trkpt>
      <trkpt lat="45.04502" lon="5.49924">
        <ele>1285</ele>
        <time>2022-01-13T20:57:55Z</time>
      </trkpt>
      <trkpt lat="45.04523" lon="5.4993">
        <ele>1284</ele>
        <time>2022-01-13T20:58:13Z</time>
      </trkpt>
      <trkpt lat="45.04614" lon="5.49949">
        <ele>1282</ele>
        <time>2022-01-13T20:59:26Z</time>
      </trkpt>
      <trkpt lat="45.04623" lon="5.49957">
        <ele>1282</ele>
        <time>2022-01-13T20:59:35Z</time>
      </trkpt>
      <trkpt lat="45.04642" lon="5.49977">
        <ele>1280</ele>
        <time>2022-01-13T20:59:54Z</time>
      </trkpt>
      <trkpt lat="45.0466" lon="5.49986">
        <ele>1280</ele>
        <time>2022-01-13T21:00:09Z</time>
      </trkpt>
      <trkpt lat="45.04718" lon="5.49998">
        <ele>1279</ele>
        <time>2022-01-13T21:00:56Z</time>
      </trkpt>
      <trkpt lat="45.04742" lon="5.49998">
        <ele>1278</ele>
        <time>2022-01-13T21:01:15Z</time>
      </trkpt>
      <trkpt lat="45.04751" lon="5.5">
        <ele>1278</ele>
        <time>2022-01-13T21:01:22Z</time>
      </trkpt>
      <trkpt lat="45.04759" lon="5.50007">
        <ele>1278</ele>
        <time>2022-01-13T21:01:30Z</time>
      </trkpt>
      <trkpt lat="45.04766" lon="5.50017">
        <ele>1278</ele>
        <time>2022-01-13T21:01:38Z</time>
      </trkpt>
      <trkpt lat="45.04778" lon="5.50042">
        <ele>1278</ele>
        <time>2022-01-13T21:01:55Z</time>
      </trkpt>
      <trkpt lat="45.04799" lon="5.50065">
        <ele>1277</ele>
        <time>2022-01-13T21:02:16Z</time>
      </trkpt>
      <trkpt lat="45.0482" lon="5.50085">
        <ele>1275</ele>
        <time>2022-01-13T21:02:37Z</time>
      </trkpt>
      <trkpt lat="45.04832" lon="5.50102">
        <ele>1275</ele>
        <time>2022-01-13T21:02:50Z</time>
      </trkpt>
      <trkpt lat="45.04847" lon="5.50112">
        <ele>1275</ele>
        <time>2022-01-13T21:03:03Z</time>
      </trkpt>
      <trkpt lat="45.04877" lon="5.50116">
        <ele>1273</ele>
        <time>2022-01-13T21:03:28Z</time>
      </trkpt>
      <trkpt lat="45.04907" lon="5.50135">
        <ele>1271</ele>
        <time>2022-01-13T21:03:54Z</time>
      </trkpt>
      <trkpt lat="45.04916" lon="5.50137">
        <ele>1271</ele>
        <time>2022-01-13T21:04:01Z</time>
      </trkpt>
      <trkpt lat="45.04936" lon="5.50134">
        <ele>1269</ele>
        <time>2022-01-13T21:04:17Z</time>
      </trkpt>
      <trkpt lat="45.04951" lon="5.50135">
        <ele>1267</ele>
        <time>2022-01-13T21:04:29Z</time>
      </trkpt>
      <trkpt lat="45.05094" lon="5.50178">
        <ele>1258</ele>
        <time>2022-01-13T21:06:26Z</time>
      </trkpt>
      <trkpt lat="45.05111" lon="5.50187">
        <ele>1256</ele>
        <time>2022-01-13T21:06:41Z</time>
      </trkpt>
      <trkpt lat="45.05124" lon="5.50198">
        <ele>1256</ele>
        <time>2022-01-13T21:06:53Z</time>
      </trkpt>
      <trkpt lat="45.05141" lon="5.50209">
        <ele>1254</ele>
        <time>2022-01-13T21:07:08Z</time>
      </trkpt>
      <trkpt lat="45.0517" lon="5.50211">
        <ele>1252</ele>
        <time>2022-01-13T21:07:31Z</time>
      </trkpt>
      <trkpt lat="45.05196" lon="5.50224">
        <ele>1250</ele>
        <time>2022-01-13T21:07:53Z</time>
      </trkpt>
      <trkpt lat="45.05206" lon="5.50232">
        <ele>1250</ele>
        <time>2022-01-13T21:08:02Z</time>
      </trkpt>
      <trkpt lat="45.05212" lon="5.5024">
        <ele>1250</ele>
        <time>2022-01-13T21:08:09Z</time>
      </trkpt>
      <trkpt lat="45.05219" lon="5.50255">
        <ele>1249</ele>
        <time>2022-01-13T21:08:19Z</time>
      </trkpt>
      <trkpt lat="45.0523" lon="5.50268">
        <ele>1248</ele>
        <time>2022-01-13T21:08:31Z</time>
      </trkpt>
      <trkpt lat="45.05217" lon="5.50304">
        <ele>1248</ele>
        <time>2022-01-13T21:08:54Z</time>
      </trkpt>
      <trkpt lat="45.05233" lon="5.50346">
        <ele>1246</ele>
        <time>2022-01-13T21:09:21Z</time>
      </trkpt>
      <trkpt lat="45.0527" lon="5.50354">
        <ele>1245</ele>
        <time>2022-01-13T21:09:51Z</time>
      </trkpt>
      <trkpt lat="45.05283" lon="5.50395">
        <ele>1245</ele>
        <time>2022-01-13T21:10:16Z</time>
      </trkpt>
      <trkpt lat="45.05288" lon="5.50454">
        <ele>1243</ele>
        <time>2022-01-13T21:10:50Z</time>
      </trkpt>
      <trkpt lat="45.05313" lon="5.50494">
        <ele>1241</ele>
        <time>2022-01-13T21:11:20Z</time>
      </trkpt>
      <trkpt lat="45.05335" lon="5.50515">
        <ele>1238</ele>
        <time>2022-01-13T21:11:41Z</time>
      </trkpt>
      <trkpt lat="45.05348" lon="5.50518">
        <ele>1238</ele>
        <time>2022-01-13T21:11:52Z</time>
      </trkpt>
      <trkpt lat="45.05374" lon="5.50518">
        <ele>1238</ele>
        <time>2022-01-13T21:12:12Z</time>
      </trkpt>
      <trkpt lat="45.05387" lon="5.50522">
        <ele>1237</ele>
        <time>2022-01-13T21:12:23Z</time>
      </trkpt>
      <trkpt lat="45.05411" lon="5.50535">
        <ele>1236</ele>
        <time>2022-01-13T21:12:44Z</time>
      </trkpt>
      <trkpt lat="45.05419" lon="5.50542">
        <ele>1235</ele>
        <time>2022-01-13T21:12:51Z</time>
      </trkpt>
      <trkpt lat="45.0546" lon="5.50598">
        <ele>1228</ele>
        <time>2022-01-13T21:13:37Z</time>
      </trkpt>
      <trkpt lat="45.0549" lon="5.50612">
        <ele>1226</ele>
        <time>2022-01-13T21:14:02Z</time>
      </trkpt>
      <trkpt lat="45.05494" lon="5.50621">
        <ele>1225</ele>
        <time>2022-01-13T21:14:08Z</time>
      </trkpt>
      <trkpt lat="45.05496" lon="5.50632">
        <ele>1224</ele>
        <time>2022-01-13T21:14:15Z</time>
      </trkpt>
      <trkpt lat="45.05483" lon="5.50705">
        <ele>1219</ele>
        <time>2022-01-13T21:14:57Z</time>
      </trkpt>
      <trkpt lat="45.05496" lon="5.50695">
        <ele>1219</ele>
        <time>2022-01-13T21:15:09Z</time>
      </trkpt>
      <trkpt lat="45.05517" lon="5.50673">
        <ele>1219</ele>
        <time>2022-01-13T21:15:30Z</time>
      </trkpt>
      <trkpt lat="45.05526" lon="5.50657">
        <ele>1220</ele>
        <time>2022-01-13T21:15:41Z</time>
      </trkpt>
      <trkpt lat="45.0553" lon="5.50614">
        <ele>1225</ele>
        <time>2022-01-13T21:16:06Z</time>
      </trkpt>
      <trkpt lat="45.05539" lon="5.50563">
        <ele>1230</ele>
        <time>2022-01-13T21:16:36Z</time>
      </trkpt>
      <trkpt lat="45.05537" lon="5.50539">
        <ele>1233</ele>
        <time>2022-01-13T21:16:49Z</time>
      </trkpt>
      <trkpt lat="45.05523" lon="5.50511">
        <ele>1236</ele>
        <time>2022-01-13T21:17:09Z</time>
      </trkpt>
      <trkpt lat="45.05518" lon="5.50496">
        <ele>1238</ele>
        <time>2022-01-13T21:17:18Z</time>
      </trkpt>
      <trkpt lat="45.0552" lon="5.50485">
        <ele>1239</ele>
        <time>2022-01-13T21:17:25Z</time>
      </trkpt>
      <trkpt lat="45.05544" lon="5.50455">
        <ele>1240</ele>
        <time>2022-01-13T21:17:50Z</time>
      </trkpt>
      <trkpt lat="45.05559" lon="5.50441">
        <ele>1240</ele>
        <time>2022-01-13T21:18:05Z</time>
      </trkpt>
      <trkpt lat="45.05622" lon="5.50418">
        <ele>1244</ele>
        <time>2022-01-13T21:18:57Z</time>
      </trkpt>
      <trkpt lat="45.05643" lon="5.50415">
        <ele>1246</ele>
        <time>2022-01-13T21:19:14Z</time>
      </trkpt>
      <trkpt lat="45.05653" lon="5.5041">
        <ele>1247</ele>
        <time>2022-01-13T21:19:22Z</time>
      </trkpt>
      <trkpt lat="45.05666" lon="5.50393">
        <ele>1248</ele>
        <time>2022-01-13T21:19:36Z</time>
      </trkpt>
      <trkpt lat="45.05678" lon="5.50368">
        <ele>1249</ele>
        <time>2022-01-13T21:19:53Z</time>
      </trkpt>
      <trkpt lat="45.05684" lon="5.50352">
        <ele>1250</ele>
        <time>2022-01-13T21:20:04Z</time>
      </trkpt>
      <trkpt lat="45.05723" lon="5.50293">
        <ele>1256</ele>
        <time>2022-01-13T21:20:49Z</time>
      </trkpt>
      <trkpt lat="45.05729" lon="5.50281">
        <ele>1257</ele>
        <time>2022-01-13T21:20:58Z</time>
      </trkpt>
      <trkpt lat="45.05732" lon="5.5027">
        <ele>1257</ele>
        <time>2022-01-13T21:21:04Z</time>
      </trkpt>
      <trkpt lat="45.05731" lon="5.50261">
        <ele>1257</ele>
        <time>2022-01-13T21:21:09Z</time>
      </trkpt>
      <trkpt lat="45.05842" lon="5.50229">
        <ele>1261</ele>
        <time>2022-01-13T21:22:40Z</time>
      </trkpt>
      <trkpt lat="45.05918" lon="5.50265">
        <ele>1261</ele>
        <time>2022-01-13T21:23:44Z</time>
      </trkpt>
      <trkpt lat="45.05969" lon="5.50314">
        <ele>1260</ele>
        <time>2022-01-13T21:24:34Z</time>
      </trkpt>
      <trkpt lat="45.06026" lon="5.50373">
        <ele>1253</ele>
        <time>2022-01-13T21:25:30Z</time>
      </trkpt>
      <trkpt lat="45.06111" lon="5.50305">
        <ele>1241</ele>
        <time>2022-01-13T21:26:48Z</time>
      </trkpt>
      <trkpt lat="45.06176" lon="5.50252">
        <ele>1228</ele>
        <time>2022-01-13T21:27:48Z</time>
      </trkpt>
      <trkpt lat="45.06263" lon="5.50227">
        <ele>1223</ele>
        <time>2022-01-13T21:28:59Z</time>
      </trkpt>
      <trkpt lat="45.06329" lon="5.50155">
        <ele>1219</ele>
        <time>2022-01-13T21:30:06Z</time>
      </trkpt>
      <trkpt lat="45.06385" lon="5.5013">
        <ele>1212</ele>
        <time>2022-01-13T21:30:53Z</time>
      </trkpt>
      <trkpt lat="45.06427" lon="5.50139">
        <ele>1201</ele>
        <time>2022-01-13T21:31:27Z</time>
      </trkpt>
      <trkpt lat="45.06447" lon="5.50103">
        <ele>1204</ele>
        <time>2022-01-13T21:31:53Z</time>
      </trkpt>
      <trkpt lat="45.06584" lon="5.50033">
        <ele>1193</ele>
        <time>2022-01-13T21:33:50Z</time>
      </trkpt>
      <trkpt lat="45.06622" lon="5.49997">
        <ele>1190</ele>
        <time>2022-01-13T21:34:26Z</time>
      </trkpt>
      <trkpt lat="45.06626" lon="5.4999">
        <ele>1190</ele>
        <time>2022-01-13T21:34:31Z</time>
      </trkpt>
      <trkpt lat="45.06622" lon="5.49997">
        <ele>1190</ele>
        <time>2022-01-13T21:34:37Z</time>
      </trkpt>
      <trkpt lat="45.06612" lon="5.50007">
        <ele>1191</ele>
        <time>2022-01-13T21:34:46Z</time>
      </trkpt>
      <trkpt lat="45.06561" lon="5.50074">
        <ele>1187</ele>
        <time>2022-01-13T21:35:42Z</time>
      </trkpt>
      <trkpt lat="45.06535" lon="5.50091">
        <ele>1187</ele>
        <time>2022-01-13T21:36:05Z</time>
      </trkpt>
      <trkpt lat="45.06504" lon="5.50119">
        <ele>1185</ele>
        <time>2022-01-13T21:36:34Z</time>
      </trkpt>
      <trkpt lat="45.06477" lon="5.50154">
        <ele>1184</ele>
        <time>2022-01-13T21:37:04Z</time>
      </trkpt>
      <trkpt lat="45.06463" lon="5.5018">
        <ele>1182</ele>
        <time>2022-01-13T21:37:22Z</time>
      </trkpt>
      <trkpt lat="45.06461" lon="5.50219">
        <ele>1176</ele>
        <time>2022-01-13T21:37:44Z</time>
      </trkpt>
      <trkpt lat="45.06452" lon="5.50254">
        <ele>1173</ele>
        <time>2022-01-13T21:38:05Z</time>
      </trkpt>
      <trkpt lat="45.06423" lon="5.5031">
        <ele>1173</ele>
        <time>2022-01-13T21:38:45Z</time>
      </trkpt>
      <trkpt lat="45.06405" lon="5.5034">
        <ele>1173</ele>
        <time>2022-01-13T21:39:07Z</time>
      </trkpt>
      <trkpt lat="45.06392" lon="5.50355">
        <ele>1176</ele>
        <time>2022-01-13T21:39:20Z</time>
      </trkpt>
      <trkpt lat="45.06378" lon="5.50378">
        <ele>1178</ele>
        <time>2022-01-13T21:39:38Z</time>
      </trkpt>
      <trkpt lat="45.06346" lon="5.5047">
        <ele>1179</ele>
        <time>2022-01-13T21:40:36Z</time>
      </trkpt>
      <trkpt lat="45.06327" lon="5.50498">
        <ele>1180</ele>
        <time>2022-01-13T21:40:57Z</time>
      </trkpt>
      <trkpt lat="45.06313" lon="5.5051">
        <ele>1183</ele>
        <time>2022-01-13T21:41:11Z</time>
      </trkpt>
      <trkpt lat="45.06242" lon="5.50553">
        <ele>1191</ele>
        <time>2022-01-13T21:42:12Z</time>
      </trkpt>
      <trkpt lat="45.06198" lon="5.50587">
        <ele>1192</ele>
        <time>2022-01-13T21:42:53Z</time>
      </trkpt>
      <trkpt lat="45.06169" lon="5.5061">
        <ele>1192</ele>
        <time>2022-01-13T21:43:19Z</time>
      </trkpt>
      <trkpt lat="45.06154" lon="5.5065">
        <ele>1191</ele>
        <time>2022-01-13T21:43:45Z</time>
      </trkpt>
      <trkpt lat="45.06131" lon="5.5067">
        <ele>1194</ele>
        <time>2022-01-13T21:44:06Z</time>
      </trkpt>
      <trkpt lat="45.06124" lon="5.5069">
        <ele>1190</ele>
        <time>2022-01-13T21:44:19Z</time>
      </trkpt>
      <trkpt lat="45.06121" lon="5.5071">
        <ele>1186</ele>
        <time>2022-01-13T21:44:31Z</time>
      </trkpt>
      <trkpt lat="45.06122" lon="5.50718">
        <ele>1184</ele>
        <time>2022-01-13T21:44:35Z</time>
      </trkpt>
      <trkpt lat="45.06126" lon="5.50724">
        <ele>1181</ele>
        <time>2022-01-13T21:44:40Z</time>
      </trkpt>
      <trkpt lat="45.06136" lon="5.50728">
        <ele>1179</ele>
        <time>2022-01-13T21:44:48Z</time>
      </trkpt>
      <trkpt lat="45.06166" lon="5.50734">
        <ele>1173</ele>
        <time>2022-01-13T21:45:12Z</time>
      </trkpt>
      <trkpt lat="45.06198" lon="5.50748">
        <ele>1171</ele>
        <time>2022-01-13T21:45:39Z</time>
      </trkpt>
      <trkpt lat="45.06205" lon="5.50757">
        <ele>1169</ele>
        <time>2022-01-13T21:45:47Z</time>
      </trkpt>
      <trkpt lat="45.06204" lon="5.50766">
        <ele>1167</ele>
        <time>2022-01-13T21:45:52Z</time>
      </trkpt>
      <trkpt lat="45.06168" lon="5.50779">
        <ele>1164</ele>
        <time>2022-01-13T21:46:22Z</time>
      </trkpt>
      <trkpt lat="45.06143" lon="5.50792">
        <ele>1163</ele>
        <time>2022-01-13T21:46:43Z</time>
      </trkpt>
      <trkpt lat="45.06129" lon="5.50802">
        <ele>1162</ele>
        <time>2022-01-13T21:46:56Z</time>
      </trkpt>
      <trkpt lat="45.06119" lon="5.50812">
        <ele>1161</ele>
        <time>2022-01-13T21:47:05Z</time>
      </trkpt>
      <trkpt lat="45.06114" lon="5.50827">
        <ele>1157</ele>
        <time>2022-01-13T21:47:15Z</time>
      </trkpt>
      <trkpt lat="45.06112" lon="5.50844">
        <ele>1154</ele>
        <time>2022-01-13T21:47:25Z</time>
      </trkpt>
      <trkpt lat="45.06125" lon="5.50866">
        <ele>1150</ele>
        <time>2022-01-13T21:47:41Z</time>
      </trkpt>
      <trkpt lat="45.0613" lon="5.50879">
        <ele>1148</ele>
        <time>2022-01-13T21:47:49Z</time>
      </trkpt>
      <trkpt lat="45.06134" lon="5.50904">
        <ele>1145</ele>
        <time>2022-01-13T21:48:04Z</time>
      </trkpt>
      <trkpt lat="45.06134" lon="5.50934">
        <ele>1141</ele>
        <time>2022-01-13T21:48:21Z</time>
      </trkpt>
      <trkpt lat="45.06132" lon="5.50941">
        <ele>1141</ele>
        <time>2022-01-13T21:48:25Z</time>
      </trkpt>
      <trkpt lat="45.06202" lon="5.50935">
        <ele>1142</ele>
        <time>2022-01-13T21:49:21Z</time>
      </trkpt>
      <trkpt lat="45.06289" lon="5.50878">
        <ele>1146</ele>
        <time>2022-01-13T21:50:38Z</time>
      </trkpt>
      <trkpt lat="45.06346" lon="5.50832">
        <ele>1147</ele>
        <time>2022-01-13T21:51:30Z</time>
      </trkpt>
      <trkpt lat="45.0639" lon="5.50845">
        <ele>1143</ele>
        <time>2022-01-13T21:52:06Z</time>
      </trkpt>
      <trkpt lat="45.06308" lon="5.5108">
        <ele>1130</ele>
        <time>2022-01-13T21:54:35Z</time>
      </trkpt>
      <trkpt lat="45.06292" lon="5.51149">
        <ele>1127</ele>
        <time>2022-01-13T21:55:16Z</time>
      </trkpt>
      <trkpt lat="45.06292" lon="5.51266">
        <ele>1118</ele>
        <time>2022-01-13T21:56:22Z</time>
      </trkpt>
      <trkpt lat="45.0628" lon="5.51343">
        <ele>1111</ele>
        <time>2022-01-13T21:57:06Z</time>
      </trkpt>
      <trkpt lat="45.06281" lon="5.51379">
        <ele>1107</ele>
        <time>2022-01-13T21:57:27Z</time>
      </trkpt>
      <trkpt lat="45.06211" lon="5.51455">
        <ele>1105</ele>
        <time>2022-01-13T21:58:37Z</time>
      </trkpt>
      <trkpt lat="45.06211" lon="5.51455">
        <ele>1105</ele>
        <time>2022-01-13T21:58:37Z</time>
      </trkpt>
      <trkpt lat="45.06157" lon="5.51463">
        <ele>1107</ele>
        <time>2022-01-13T21:59:21Z</time>
      </trkpt>
      <trkpt lat="45.06119" lon="5.51547">
        <ele>1098</ele>
        <time>2022-01-13T22:00:17Z</time>
      </trkpt>
      <trkpt lat="45.06051" lon="5.51567">
        <ele>1097</ele>
        <time>2022-01-13T22:01:13Z</time>
      </trkpt>
      <trkpt lat="45.06018" lon="5.5157">
        <ele>1097</ele>
        <time>2022-01-13T22:01:39Z</time>
      </trkpt>
      <trkpt lat="45.0595" lon="5.517">
        <ele>1105</ele>
        <time>2022-01-13T22:03:11Z</time>
      </trkpt>
      <trkpt lat="45.05952" lon="5.51724">
        <ele>1106</ele>
        <time>2022-01-13T22:03:24Z</time>
      </trkpt>
      <trkpt lat="45.05961" lon="5.51763">
        <ele>1108</ele>
        <time>2022-01-13T22:03:48Z</time>
      </trkpt>
      <trkpt lat="45.05972" lon="5.51795">
        <ele>1109</ele>
        <time>2022-01-13T22:04:08Z</time>
      </trkpt>
      <trkpt lat="45.05983" lon="5.51816">
        <ele>1109</ele>
        <time>2022-01-13T22:04:23Z</time>
      </trkpt>
      <trkpt lat="45.06002" lon="5.51839">
        <ele>1109</ele>
        <time>2022-01-13T22:04:43Z</time>
      </trkpt>
      <trkpt lat="45.06013" lon="5.51865">
        <ele>1108</ele>
        <time>2022-01-13T22:05:00Z</time>
      </trkpt>
      <trkpt lat="45.06022" lon="5.51892">
        <ele>1107</ele>
        <time>2022-01-13T22:05:17Z</time>
      </trkpt>
      <trkpt lat="45.06024" lon="5.51971">
        <ele>1110</ele>
        <time>2022-01-13T22:06:01Z</time>
      </trkpt>
      <trkpt lat="45.06032" lon="5.51993">
        <ele>1109</ele>
        <time>2022-01-13T22:06:15Z</time>
      </trkpt>
      <trkpt lat="45.06064" lon="5.52032">
        <ele>1108</ele>
        <time>2022-01-13T22:06:49Z</time>
      </trkpt>
      <trkpt lat="45.0609" lon="5.52071">
        <ele>1108</ele>
        <time>2022-01-13T22:07:19Z</time>
      </trkpt>
      <trkpt lat="45.06154" lon="5.52178">
        <ele>1115</ele>
        <time>2022-01-13T22:08:39Z</time>
      </trkpt>
      <trkpt lat="45.06176" lon="5.52189">
        <ele>1113</ele>
        <time>2022-01-13T22:08:57Z</time>
      </trkpt>
      <trkpt lat="45.06179" lon="5.52185">
        <ele>1113</ele>
        <time>2022-01-13T22:09:01Z</time>
      </trkpt>
      <trkpt lat="45.06176" lon="5.52189">
        <ele>1113</ele>
        <time>2022-01-13T22:09:04Z</time>
      </trkpt>
      <trkpt lat="45.0618" lon="5.52194">
        <ele>1113</ele>
        <time>2022-01-13T22:09:08Z</time>
      </trkpt>
      <trkpt lat="45.06191" lon="5.52242">
        <ele>1116</ele>
        <time>2022-01-13T22:09:37Z</time>
      </trkpt>
      <trkpt lat="45.06233" lon="5.52278">
        <ele>1115</ele>
        <time>2022-01-13T22:10:16Z</time>
      </trkpt>
      <trkpt lat="45.06239" lon="5.52288">
        <ele>1116</ele>
        <time>2022-01-13T22:10:24Z</time>
      </trkpt>
      <trkpt lat="45.0624" lon="5.523">
        <ele>1117</ele>
        <time>2022-01-13T22:10:30Z</time>
      </trkpt>
      <trkpt lat="45.06238" lon="5.52311">
        <ele>1119</ele>
        <time>2022-01-13T22:10:37Z</time>
      </trkpt>
      <trkpt lat="45.06233" lon="5.52328">
        <ele>1121</ele>
        <time>2022-01-13T22:10:47Z</time>
      </trkpt>
      <trkpt lat="45.06215" lon="5.52361">
        <ele>1126</ele>
        <time>2022-01-13T22:11:11Z</time>
      </trkpt>
      <trkpt lat="45.0622" lon="5.52375">
        <ele>1127</ele>
        <time>2022-01-13T22:11:20Z</time>
      </trkpt>
      <trkpt lat="45.06223" lon="5.5238">
        <ele>1127</ele>
        <time>2022-01-13T22:11:23Z</time>
      </trkpt>
    </trkseg>
  </trk>
</gpx>